Time;durP1;ratioP1;P1;durP2;ratioP2;P2;SDS_P1;SDS_P2;PMS_P1;PMS_P2;Temp;Humidity;BMP_temperature;BMP_pressure;BME280_temperature;BME280_humidity;BME280_pressure;Samples;Min_cycle;Max_cycle;Signal;HPM_P1;HPM_P2
2022/10/14 00:01:17;;;;;;;12.38;6.47;;;;;;;;;;6155319;23;20013;-75
2022/10/14 00:03:43;;;;;;;8.82;6.03;;;;;;;;;;6182303;23;20020;-76
2022/10/14 00:06:13;;;;;;;12.63;6.32;;;;;;;;;;6182017;23;20402;-75
2022/10/14 00:08:39;;;;;;;7.20;6.00;;;;;;;;;;6155624;23;20013;-76
2022/10/14 00:11:10;;;;;;;10.07;6.82;;;;;;;;;;6181446;23;20407;-75
2022/10/14 00:13:36;;;;;;;16.80;7.17;;;;;;;;;;6155281;23;20040;-74
2022/10/14 00:16:02;;;;;;;13.73;6.45;;;;;;;;;;6184593;23;20249;-76
2022/10/14 00:18:28;;;;;;;16.58;7.30;;;;;;;;;;6186847;23;20013;-75
2022/10/14 00:20:54;;;;;;;7.32;6.45;;;;;;;;;;6137617;23;20095;-76
2022/10/14 00:23:20;;;;;;;10.98;7.07;;;;;;;;;;6193148;23;20009;-75
2022/10/14 00:25:46;;;;;;;14.27;6.38;;;;;;;;;;6197523;23;20472;-75
2022/10/14 00:28:12;;;;;;;6.70;6.07;;;;;;;;;;6191465;23;20009;-75
2022/10/14 00:30:38;;;;;;;12.55;6.65;;;;;;;;;;6155532;23;20017;-75
2022/10/14 00:33:04;;;;;;;12.48;6.90;;;;;;;;;;6182231;23;20103;-75
2022/10/14 00:35:31;;;;;;;7.50;6.72;;;;;;;;;;6155282;23;20017;-78
2022/10/14 00:37:57;;;;;;;10.27;7.25;;;;;;;;;;6181371;23;20019;-76
2022/10/14 00:40:24;;;;;;;12.82;6.90;;;;;;;;;;6154375;23;20369;-75
2022/10/14 00:42:50;;;;;;;15.15;8.23;;;;;;;;;;6154797;23;20019;-75
2022/10/14 00:45:19;;;;;;;11.35;7.60;;;;;;;;;;6180408;23;20013;-75
2022/10/14 00:47:46;;;;;;;7.60;6.38;;;;;;;;;;6181071;23;20009;-75
2022/10/14 00:50:12;;;;;;;8.00;6.82;;;;;;;;;;6180379;23;20128;-75
2022/10/14 00:52:38;;;;;;;8.80;6.93;;;;;;;;;;6129821;23;20422;-74
2022/10/14 00:55:05;;;;;;;13.07;7.22;;;;;;;;;;6154238;23;20017;-77
2022/10/14 00:57:31;;;;;;;11.85;7.47;;;;;;;;;;6145304;23;20029;-75
2022/10/14 01:00:03;;;;;;;10.98;7.75;;;;;;;;;;6125038;23;20362;-75
2022/10/14 01:02:30;;;;;;;10.95;6.50;;;;;;;;;;6101100;23;20029;-76
2022/10/14 01:04:55;;;;;;;10.32;7.38;;;;;;;;;;6124709;23;20016;-75
2022/10/14 01:07:50;;;;;;;12.52;7.57;;;;;;;;;;6151184;23;20017;-76
2022/10/14 01:10:35;;;;;;;10.52;6.85;;;;;;;;;;6097146;23;20640;-75
2022/10/14 01:13:10;;;;;;;11.63;7.28;;;;;;;;;;6126018;23;20140;-74
2022/10/14 01:15:55;;;;;;;9.18;6.65;;;;;;;;;;6151395;23;20018;-74
2022/10/14 01:18:41;;;;;;;8.27;6.80;;;;;;;;;;6125701;23;20068;-76
2022/10/14 01:21:20;;;;;;;11.35;7.28;;;;;;;;;;6137299;23;20022;-76
2022/10/14 01:24:09;;;;;;;7.50;6.80;;;;;;;;;;6125204;23;20022;-75
2022/10/14 01:26:39;;;;;;;12.25;7.15;;;;;;;;;;6124926;23;20492;-76
2022/10/14 01:29:14;;;;;;;10.85;8.02;;;;;;;;;;6099879;23;20021;-75
2022/10/14 01:31:43;;;;;;;10.68;7.03;;;;;;;;;;6150838;23;20028;-75
2022/10/14 01:34:11;;;;;;;11.88;8.80;;;;;;;;;;6126565;23;20332;-76
2022/10/14 01:36:38;;;;;;;11.93;7.85;;;;;;;;;;6102435;23;20013;-77
2022/10/14 01:39:13;;;;;;;11.52;8.55;;;;;;;;;;6100961;23;20013;-75
2022/10/14 01:41:41;;;;;;;13.50;8.30;;;;;;;;;;6101385;23;20370;-75
2022/10/14 01:44:09;;;;;;;17.10;8.90;;;;;;;;;;6151485;23;20442;-75
2022/10/14 01:46:38;;;;;;;17.27;8.45;;;;;;;;;;6126248;23;20416;-74
2022/10/14 01:49:06;;;;;;;11.50;9.18;;;;;;;;;;6125167;23;20017;-76
2022/10/14 01:51:35;;;;;;;11.68;8.77;;;;;;;;;;6100102;23;20021;-75
2022/10/14 01:54:05;;;;;;;11.02;9.70;;;;;;;;;;6124324;23;20023;-75
2022/10/14 01:56:32;;;;;;;14.48;11.25;;;;;;;;;;6100322;23;20442;-73
2022/10/14 01:58:58;;;;;;;13.00;9.00;;;;;;;;;;6105326;23;20025;-76
2022/10/14 02:01:23;;;;;;;15.18;10.30;;;;;;;;;;6129716;23;20324;-74
2022/10/14 02:03:49;;;;;;;10.02;9.13;;;;;;;;;;6154631;23;20005;-74
2022/10/14 02:06:35;;;;;;;10.82;9.57;;;;;;;;;;6183157;23;20100;-75
2022/10/14 02:09:05;;;;;;;12.93;10.32;;;;;;;;;;6181060;23;20017;-74
2022/10/14 02:11:33;;;;;;;17.20;9.85;;;;;;;;;;6132859;23;20370;-74
2022/10/14 02:14:20;;;;;;;12.82;10.23;;;;;;;;;;6159368;23;20101;-75
2022/10/14 02:17:03;;;;;;;11.98;10.88;;;;;;;;;;6129356;23;20048;-74
2022/10/14 02:19:42;;;;;;;13.35;9.48;;;;;;;;;;6157849;23;20017;-73
2022/10/14 02:22:12;;;;;;;21.08;10.02;;;;;;;;;;6158020;23;20013;-75
2022/10/14 02:24:43;;;;;;;11.90;10.70;;;;;;;;;;6185182;23;20353;-75
2022/10/14 02:27:10;;;;;;;12.57;9.38;;;;;;;;;;6134933;23;20015;-74
2022/10/14 02:29:37;;;;;;;11.10;10.10;;;;;;;;;;6110023;23;20044;-75
2022/10/14 02:32:03;;;;;;;12.32;10.23;;;;;;;;;;6161301;23;20025;-76
2022/10/14 02:34:30;;;;;;;16.65;11.85;;;;;;;;;;6159924;23;20075;-74
2022/10/14 02:36:56;;;;;;;16.48;10.95;;;;;;;;;;6162816;23;20017;-75
2022/10/14 02:39:42;;;;;;;14.27;11.13;;;;;;;;;;6137335;23;20092;-75
2022/10/14 02:42:08;;;;;;;14.13;11.15;;;;;;;;;;6187254;23;20016;-75
2022/10/14 02:44:34;;;;;;;14.70;10.25;;;;;;;;;;6138879;23;20249;-74
2022/10/14 02:47:00;;;;;;;13.00;11.27;;;;;;;;;;6163573;23;20096;-74
2022/10/14 02:49:28;;;;;;;13.15;11.00;;;;;;;;;;6162691;23;20032;-75
2022/10/14 02:51:54;;;;;;;12.52;11.07;;;;;;;;;;6188706;23;20029;-75
2022/10/14 02:54:20;;;;;;;13.70;10.60;;;;;;;;;;6162359;23;20091;-75
2022/10/14 02:56:46;;;;;;;24.50;11.50;;;;;;;;;;6138927;23;20124;-74
2022/10/14 02:59:11;;;;;;;12.80;11.52;;;;;;;;;;6161844;23;20084;-74
2022/10/14 03:01:38;;;;;;;15.25;11.25;;;;;;;;;;6162603;23;20088;-74
2022/10/14 03:04:07;;;;;;;14.80;11.52;;;;;;;;;;6187470;23;20031;-75
2022/10/14 03:06:33;;;;;;;16.73;11.27;;;;;;;;;;6187877;23;20013;-75
2022/10/14 03:08:59;;;;;;;17.45;11.27;;;;;;;;;;6186384;23;20016;-73
2022/10/14 03:11:25;;;;;;;16.83;11.07;;;;;;;;;;6159598;23;20024;-74
2022/10/14 03:13:54;;;;;;;16.58;11.65;;;;;;;;;;6157977;23;20021;-74
2022/10/14 03:16:20;;;;;;;16.60;11.52;;;;;;;;;;6158133;23;20009;-74
2022/10/14 03:18:47;;;;;;;12.32;10.98;;;;;;;;;;6159797;23;20017;-75
2022/10/14 03:21:21;;;;;;;15.00;11.63;;;;;;;;;;6129124;23;20013;-75
2022/10/14 03:23:47;;;;;;;14.95;11.43;;;;;;;;;;6155645;23;20063;-74
2022/10/14 03:26:13;;;;;;;15.68;11.73;;;;;;;;;;6160545;23;20068;-74
2022/10/14 03:28:42;;;;;;;16.55;11.10;;;;;;;;;;6159983;23;20040;-73
2022/10/14 03:31:19;;;;;;;16.23;10.90;;;;;;;;;;6160616;23;20028;-74
2022/10/14 03:34:03;;;;;;;12.85;11.48;;;;;;;;;;6187875;23;20097;-75
2022/10/14 03:36:30;;;;;;;17.10;12.10;;;;;;;;;;6188734;23;20012;-74
2022/10/14 03:38:57;;;;;;;19.85;11.32;;;;;;;;;;6161310;23;20023;-76
2022/10/14 03:41:52;;;;;;;16.05;11.30;;;;;;;;;;6148954;23;20041;-74
2022/10/14 03:44:22;;;;;;;15.52;11.15;;;;;;;;;;6113156;23;20013;-75
2022/10/14 03:47:20;;;;;;;15.07;11.52;;;;;;;;;;6176050;23;20009;-76
2022/10/14 03:49:46;;;;;;;15.38;11.05;;;;;;;;;;6195337;23;20037;-77
2022/10/14 03:52:19;;;;;;;16.45;11.32;;;;;;;;;;6163633;23;20493;-76
2022/10/14 03:54:55;;;;;;;21.63;12.20;;;;;;;;;;6163129;23;20069;-77
2022/10/14 03:57:22;;;;;;;20.30;12.00;;;;;;;;;;6163209;23;20537;-77
2022/10/14 03:59:52;;;;;;;12.02;10.70;;;;;;;;;;6109178;23;20009;-76
2022/10/14 04:02:20;;;;;;;15.18;10.95;;;;;;;;;;6155608;23;20457;-75
2022/10/14 04:04:46;;;;;;;19.25;11.23;;;;;;;;;;6155653;23;20060;-75
2022/10/14 04:07:14;;;;;;;13.07;10.77;;;;;;;;;;6155350;23;20021;-76
2022/10/14 04:09:47;;;;;;;11.98;10.40;;;;;;;;;;6155221;23;20019;-74
2022/10/14 04:12:13;;;;;;;22.27;12.20;;;;;;;;;;6154652;23;20075;-74
2022/10/14 04:14:50;;;;;;;16.80;12.88;;;;;;;;;;6154827;23;20013;-75
2022/10/14 04:17:16;;;;;;;15.48;11.45;;;;;;;;;;6154871;23;20017;-75
2022/10/14 04:19:43;;;;;;;18.67;11.18;;;;;;;;;;6154579;23;20481;-74
2022/10/14 04:22:09;;;;;;;14.98;11.60;;;;;;;;;;6155084;23;20020;-74
2022/10/14 04:24:35;;;;;;;16.67;12.10;;;;;;;;;;6180556;23;20031;-76
2022/10/14 04:27:00;;;;;;;12.38;9.93;;;;;;;;;;6181220;23;20020;-74
2022/10/14 04:29:39;;;;;;;17.25;9.55;;;;;;;;;;6153356;23;20013;-74
2022/10/14 04:32:15;;;;;;;14.32;9.50;;;;;;;;;;6162290;23;20013;-73
2022/10/14 04:34:41;;;;;;;11.52;10.15;;;;;;;;;;6170500;23;20016;-77
2022/10/14 04:37:09;;;;;;;12.95;10.07;;;;;;;;;;6174318;23;20270;-76
2022/10/14 04:39:58;;;;;;;10.65;9.68;;;;;;;;;;6157806;23;20040;-75
2022/10/14 04:42:24;;;;;;;10.57;9.50;;;;;;;;;;6154936;23;20465;-77
2022/10/14 04:44:54;;;;;;;11.40;10.25;;;;;;;;;;6106420;23;20017;-78
2022/10/14 04:47:29;;;;;;;19.40;10.05;;;;;;;;;;6155344;23;20024;-76
2022/10/14 04:49:59;;;;;;;13.23;10.80;;;;;;;;;;6154752;23;20013;-76
2022/10/14 04:52:28;;;;;;;12.15;10.95;;;;;;;;;;6181572;23;20032;-76
2022/10/14 04:55:07;;;;;;;12.60;9.75;;;;;;;;;;6154299;23;20017;-76
2022/10/14 04:57:42;;;;;;;15.07;10.15;;;;;;;;;;6154468;23;20028;-76
2022/10/14 05:00:10;;;;;;;16.25;10.50;;;;;;;;;;6181154;23;20013;-76
2022/10/14 05:02:52;;;;;;;18.45;9.60;;;;;;;;;;6154619;23;20012;-77
2022/10/14 05:05:22;;;;;;;17.52;10.32;;;;;;;;;;6154326;23;20037;-76
2022/10/14 05:07:52;;;;;;;10.57;9.47;;;;;;;;;;6131334;23;20024;-77
2022/10/14 05:10:32;;;;;;;11.40;9.15;;;;;;;;;;6155736;23;20078;-75
2022/10/14 05:13:00;;;;;;;15.27;10.02;;;;;;;;;;6157008;23;20028;-78
2022/10/14 05:15:30;;;;;;;16.60;10.80;;;;;;;;;;6131043;23;20047;-76
2022/10/14 05:18:09;;;;;;;13.65;8.95;;;;;;;;;;6154502;23;20048;-76
2022/10/14 05:20:58;;;;;;;10.20;9.00;;;;;;;;;;6159660;23;20016;-76
2022/10/14 05:23:31;;;;;;;12.55;9.32;;;;;;;;;;6153988;23;20100;-76
2022/10/14 05:25:58;;;;;;;14.70;9.55;;;;;;;;;;6154470;23;20041;-75
2022/10/14 05:28:24;;;;;;;13.90;9.60;;;;;;;;;;6154202;23;20021;-76
2022/10/14 05:30:51;;;;;;;14.52;9.90;;;;;;;;;;6154074;23;20446;-77
2022/10/14 05:33:18;;;;;;;10.30;9.32;;;;;;;;;;6154005;23;20012;-76
2022/10/14 05:35:43;;;;;;;12.18;9.70;;;;;;;;;;6105867;23;20016;-78
2022/10/14 05:38:11;;;;;;;13.20;10.15;;;;;;;;;;6105913;23;20013;-76
2022/10/14 05:40:39;;;;;;;20.40;9.85;;;;;;;;;;6155110;23;20016;-77
2022/10/14 05:43:05;;;;;;;15.70;9.10;;;;;;;;;;6181042;23;20025;-77
2022/10/14 05:45:34;;;;;;;15.55;8.38;;;;;;;;;;6153727;23;20005;-78
2022/10/14 05:48:01;;;;;;;12.55;9.07;;;;;;;;;;6154431;23;20016;-77
2022/10/14 05:50:27;;;;;;;15.65;9.95;;;;;;;;;;6153980;23;20013;-77
2022/10/14 05:52:53;;;;;;;17.52;10.15;;;;;;;;;;6154137;23;20028;-75
2022/10/14 05:55:28;;;;;;;11.82;9.90;;;;;;;;;;6153617;23;20096;-76
2022/10/14 05:57:57;;;;;;;15.20;10.63;;;;;;;;;;6178626;23;20024;-77
2022/10/14 06:00:28;;;;;;;16.55;9.60;;;;;;;;;;6153426;23;20252;-77
2022/10/14 06:03:01;;;;;;;13.48;10.00;;;;;;;;;;6131252;23;20072;-77
2022/10/14 06:05:26;;;;;;;14.63;9.98;;;;;;;;;;6179915;23;20012;-75
2022/10/14 06:07:52;;;;;;;10.13;9.13;;;;;;;;;;6154423;23;20017;-76
2022/10/14 06:10:18;;;;;;;11.38;10.25;;;;;;;;;;6153772;23;20020;-77
2022/10/14 06:12:45;;;;;;;16.85;10.00;;;;;;;;;;6154081;23;20032;-78
2022/10/14 06:15:11;;;;;;;10.55;9.38;;;;;;;;;;6180276;23;20047;-77
2022/10/14 06:17:37;;;;;;;11.27;8.80;;;;;;;;;;6153881;23;20019;-76
2022/10/14 06:20:03;;;;;;;9.95;9.13;;;;;;;;;;6154131;23;20471;-76
2022/10/14 06:22:29;;;;;;;9.20;8.30;;;;;;;;;;6153629;23;20013;-77
2022/10/14 06:24:55;;;;;;;13.90;10.10;;;;;;;;;;6179529;23;20462;-77
2022/10/14 06:27:21;;;;;;;10.07;8.20;;;;;;;;;;6152465;23;20020;-76
2022/10/14 06:29:47;;;;;;;15.23;9.05;;;;;;;;;;6178769;23;20013;-76
2022/10/14 06:32:13;;;;;;;18.00;9.30;;;;;;;;;;6153240;23;20512;-77
2022/10/14 06:34:39;;;;;;;10.05;7.88;;;;;;;;;;6178879;23;20009;-76
2022/10/14 06:37:05;;;;;;;8.20;7.00;;;;;;;;;;6152224;23;20021;-76
2022/10/14 06:39:30;;;;;;;10.50;8.35;;;;;;;;;;6178368;23;20015;-76
2022/10/14 06:41:57;;;;;;;9.57;7.80;;;;;;;;;;6179155;23;20009;-75
2022/10/14 06:44:22;;;;;;;11.00;8.25;;;;;;;;;;6177882;23;20056;-76
2022/10/14 06:46:49;;;;;;;10.48;7.65;;;;;;;;;;6178370;23;20109;-74
2022/10/14 06:49:14;;;;;;;8.48;7.35;;;;;;;;;;6178381;23;20024;-74
2022/10/14 06:51:40;;;;;;;14.68;8.48;;;;;;;;;;6177948;23;20025;-74
2022/10/14 06:54:06;;;;;;;16.92;7.57;;;;;;;;;;6178471;23;20012;-75
2022/10/14 06:56:33;;;;;;;11.70;7.57;;;;;;;;;;6151872;23;20450;-76
2022/10/14 06:58:59;;;;;;;7.28;6.38;;;;;;;;;;6178237;23;20021;-75
2022/10/14 07:01:25;;;;;;;12.10;7.93;;;;;;;;;;6178141;23;20042;-74
2022/10/14 07:03:51;;;;;;;10.95;6.95;;;;;;;;;;6178474;23;20045;-75
2022/10/14 07:06:17;;;;;;;7.53;6.78;;;;;;;;;;6179558;23;20013;-75
2022/10/14 07:08:43;;;;;;;9.80;7.32;;;;;;;;;;6154128;23;20013;-75
2022/10/14 07:11:09;;;;;;;6.63;6.03;;;;;;;;;;6131846;23;20029;-77
2022/10/14 07:13:36;;;;;;;6.90;6.30;;;;;;;;;;6181103;23;20013;-77
2022/10/14 07:16:03;;;;;;;7.40;6.43;;;;;;;;;;6153517;23;20009;-76
2022/10/14 07:18:29;;;;;;;6.15;5.65;;;;;;;;;;6179409;23;20024;-76
2022/10/14 07:20:55;;;;;;;7.28;5.50;;;;;;;;;;6179196;23;20111;-76
2022/10/14 07:23:21;;;;;;;7.18;6.07;;;;;;;;;;6155285;23;20041;-77
2022/10/14 07:25:47;;;;;;;7.78;5.32;;;;;;;;;;6180091;23;20009;-76
2022/10/14 07:28:12;;;;;;;6.65;5.18;;;;;;;;;;6155174;23;20449;-77
2022/10/14 07:30:38;;;;;;;5.75;5.22;;;;;;;;;;6178945;23;20091;-77
2022/10/14 07:33:04;;;;;;;7.00;4.72;;;;;;;;;;6180527;23;20021;-77
2022/10/14 07:35:31;;;;;;;8.50;4.60;;;;;;;;;;6180128;23;20492;-78
2022/10/14 07:37:57;;;;;;;6.28;4.78;;;;;;;;;;6153959;23;20428;-76
2022/10/14 07:40:23;;;;;;;12.10;5.60;;;;;;;;;;6180029;23;20092;-77
2022/10/14 07:42:49;;;;;;;7.10;5.75;;;;;;;;;;6180320;23;20413;-77
2022/10/14 07:45:17;;;;;;;13.20;5.40;;;;;;;;;;6180290;23;20020;-77
2022/10/14 07:47:43;;;;;;;4.72;4.30;;;;;;;;;;6180106;23;20009;-78
2022/10/14 07:50:09;;;;;;;6.10;4.32;;;;;;;;;;6154094;23;20021;-77
2022/10/14 07:52:35;;;;;;;5.07;3.55;;;;;;;;;;6154116;23;20047;-77
2022/10/14 07:55:02;;;;;;;4.28;3.50;;;;;;;;;;6154319;23;20012;-77
2022/10/14 07:57:28;;;;;;;5.40;3.03;;;;;;;;;;6179906;23;20135;-77
2022/10/14 07:59:54;;;;;;;4.60;3.63;;;;;;;;;;6154083;23;20707;-77
2022/10/14 08:02:20;;;;;;;5.70;3.92;;;;;;;;;;6180811;23;20017;-77
2022/10/14 08:04:50;;;;;;;6.15;4.72;;;;;;;;;;6180277;23;20033;-76
2022/10/14 08:07:16;;;;;;;7.20;4.50;;;;;;;;;;6180739;23;20015;-77
2022/10/14 08:09:42;;;;;;;6.22;4.05;;;;;;;;;;6180060;23;20013;-75
2022/10/14 08:12:08;;;;;;;4.55;4.15;;;;;;;;;;6180204;23;20028;-76
2022/10/14 08:14:33;;;;;;;5.75;4.53;;;;;;;;;;6180014;23;20012;-76
2022/10/14 08:16:59;;;;;;;9.13;4.80;;;;;;;;;;6181126;23;20020;-74
2022/10/14 08:19:25;;;;;;;13.18;5.65;;;;;;;;;;6180961;23;20089;-74
2022/10/14 08:21:52;;;;;;;5.60;4.97;;;;;;;;;;6181524;23;20553;-76
2022/10/14 08:24:17;;;;;;;7.40;4.97;;;;;;;;;;6181040;23;20031;-76
2022/10/14 08:26:53;;;;;;;5.75;4.20;;;;;;;;;;6179985;23;20016;-75
2022/10/14 08:29:21;;;;;;;7.85;4.70;;;;;;;;;;6179816;23;20465;-76
2022/10/14 08:31:47;;;;;;;6.00;4.80;;;;;;;;;;6154735;23;20020;-75
2022/10/14 08:34:13;;;;;;;6.43;4.82;;;;;;;;;;6180714;23;20013;-76
2022/10/14 08:36:39;;;;;;;6.07;5.10;;;;;;;;;;6180044;23;20116;-76
2022/10/14 08:39:05;;;;;;;7.93;5.25;;;;;;;;;;6180066;23;20484;-77
2022/10/14 08:41:37;;;;;;;6.72;4.97;;;;;;;;;;6153400;23;20464;-76
2022/10/14 08:44:23;;;;;;;5.80;4.88;;;;;;;;;;6181325;23;20013;-77
2022/10/14 08:46:50;;;;;;;7.40;5.43;;;;;;;;;;6179560;23;20017;-76
2022/10/14 08:49:37;;;;;;;6.70;5.03;;;;;;;;;;6181136;23;20480;-77
2022/10/14 08:52:11;;;;;;;6.75;5.40;;;;;;;;;;6130096;23;20021;-77
2022/10/14 08:54:38;;;;;;;5.72;5.22;;;;;;;;;;6180549;23;20012;-76
2022/10/14 08:57:04;;;;;;;5.68;5.18;;;;;;;;;;6130164;23;20012;-76
2022/10/14 08:59:31;;;;;;;5.03;4.47;;;;;;;;;;6154506;23;20024;-76
2022/10/14 09:01:58;;;;;;;6.55;4.40;;;;;;;;;;6130549;23;20013;-76
2022/10/14 09:04:24;;;;;;;6.72;4.40;;;;;;;;;;6105885;23;20017;-76
2022/10/14 09:06:50;;;;;;;5.28;3.90;;;;;;;;;;6130095;23;20037;-76
2022/10/14 09:09:16;;;;;;;8.93;3.38;;;;;;;;;;6184290;23;20017;-76
2022/10/14 09:11:43;;;;;;;3.38;3.00;;;;;;;;;;6179866;23;20032;-76
2022/10/14 09:14:21;;;;;;;7.10;3.78;;;;;;;;;;6154761;23;20100;-76
2022/10/14 09:16:48;;;;;;;6.38;3.45;;;;;;;;;;6129564;23;20051;-75
2022/10/14 09:19:17;;;;;;;3.55;3.20;;;;;;;;;;6180878;23;20037;-75
2022/10/14 09:21:45;;;;;;;3.63;3.33;;;;;;;;;;6154132;23;20579;-76
2022/10/14 09:24:12;;;;;;;6.47;4.22;;;;;;;;;;6181169;23;20017;-76
2022/10/14 09:26:39;;;;;;;3.90;3.17;;;;;;;;;;6180588;23;20017;-75
2022/10/14 09:29:07;;;;;;;4.10;3.80;;;;;;;;;;6155638;23;20022;-76
2022/10/14 09:31:33;;;;;;;3.65;3.35;;;;;;;;;;6166643;23;20017;-76
2022/10/14 09:33:59;;;;;;;6.05;3.90;;;;;;;;;;6169534;23;20095;-76
2022/10/14 09:36:25;;;;;;;4.30;3.90;;;;;;;;;;6193784;23;20065;-75
2022/10/14 09:38:52;;;;;;;3.78;3.50;;;;;;;;;;6155244;23;20013;-76
2022/10/14 09:41:18;;;;;;;5.03;3.80;;;;;;;;;;6105845;23;20600;-76
2022/10/14 09:44:03;;;;;;;4.00;3.65;;;;;;;;;;6154154;23;20187;-76
2022/10/14 09:46:29;;;;;;;5.03;4.50;;;;;;;;;;6153425;23;20429;-76
2022/10/14 09:48:55;;;;;;;4.53;3.90;;;;;;;;;;6151609;23;20024;-76
2022/10/14 09:51:24;;;;;;;6.88;3.55;;;;;;;;;;6178771;23;20021;-76
2022/10/14 09:53:57;;;;;;;3.60;3.08;;;;;;;;;;6153517;23;20020;-76
2022/10/14 09:56:36;;;;;;;8.15;3.80;;;;;;;;;;6154216;23;20015;-77
2022/10/14 09:59:03;;;;;;;7.07;3.45;;;;;;;;;;6125095;23;20029;-76
2022/10/14 10:01:37;;;;;;;4.03;3.70;;;;;;;;;;6149968;23;20072;-75
2022/10/14 10:04:23;;;;;;;2.80;2.60;;;;;;;;;;6124917;23;20075;-76
2022/10/14 10:06:50;;;;;;;4.60;3.42;;;;;;;;;;6150074;23;20009;-76
2022/10/14 10:09:19;;;;;;;4.18;3.22;;;;;;;;;;6150480;23;20365;-76
2022/10/14 10:11:45;;;;;;;3.35;3.05;;;;;;;;;;6150304;23;20387;-76
2022/10/14 10:14:14;;;;;;;2.75;2.58;;;;;;;;;;6150275;23;20024;-76
2022/10/14 10:16:40;;;;;;;4.38;3.63;;;;;;;;;;6149911;23;20537;-76
2022/10/14 10:19:28;;;;;;;4.90;3.58;;;;;;;;;;6124607;23;20052;-75
2022/10/14 10:21:55;;;;;;;5.57;3.58;;;;;;;;;;6150687;23;20013;-76
2022/10/14 10:24:22;;;;;;;5.97;3.83;;;;;;;;;;6100551;23;20012;-76
2022/10/14 10:26:48;;;;;;;7.35;3.53;;;;;;;;;;6099964;23;20044;-75
2022/10/14 10:29:24;;;;;;;3.55;3.25;;;;;;;;;;6150687;23;20032;-76
2022/10/14 10:31:50;;;;;;;4.30;3.45;;;;;;;;;;6150114;23;20053;-75
2022/10/14 10:34:30;;;;;;;4.00;2.72;;;;;;;;;;6151367;23;20010;-75
2022/10/14 10:37:09;;;;;;;5.57;3.50;;;;;;;;;;6124576;23;20017;-77
2022/10/14 10:39:50;;;;;;;3.40;3.20;;;;;;;;;;6124424;23;20257;-76
2022/10/14 10:42:20;;;;;;;3.20;3.00;;;;;;;;;;6150762;23;20718;-75
2022/10/14 10:44:57;;;;;;;3.20;3.00;;;;;;;;;;6099882;23;20406;-76
2022/10/14 10:47:26;;;;;;;3.72;3.42;;;;;;;;;;6124730;23;20086;-76
2022/10/14 10:50:11;;;;;;;3.33;2.92;;;;;;;;;;6149674;23;20013;-76
2022/10/14 10:52:58;;;;;;;2.25;2.13;;;;;;;;;;6150038;23;20048;-75
2022/10/14 10:55:24;;;;;;;5.30;2.90;;;;;;;;;;6150264;23;20405;-76
2022/10/14 10:58:02;;;;;;;7.03;2.50;;;;;;;;;;6164351;23;20056;-75
2022/10/14 11:00:28;;;;;;;5.28;3.13;;;;;;;;;;6155888;23;20013;-75
2022/10/14 11:02:57;;;;;;;3.88;3.58;;;;;;;;;;6182282;23;20013;-76
2022/10/14 11:05:43;;;;;;;6.95;3.67;;;;;;;;;;6158934;23;20086;-76
2022/10/14 11:14:10;;;;;;;3.50;3.20;;;;;;;;;;6159806;23;20024;-76
2022/10/14 11:17:05;;;;;;;4.10;3.08;;;;;;;;;;6181522;23;20009;-76
2022/10/14 11:19:32;;;;;;;5.75;3.05;;;;;;;;;;6126646;23;20089;-76
2022/10/14 11:22:03;;;;;;;3.78;2.92;;;;;;;;;;6181618;23;20442;-76
2022/10/14 11:24:35;;;;;;;6.45;3.38;;;;;;;;;;6181660;23;20013;-75
2022/10/14 11:27:08;;;;;;;3.58;2.20;;;;;;;;;;6131153;23;20403;-76
2022/10/14 11:29:40;;;;;;;2.22;2.05;;;;;;;;;;6181328;23;20009;-76
2022/10/14 11:32:09;;;;;;;4.60;2.20;;;;;;;;;;6155034;23;20382;-76
2022/10/14 11:34:35;;;;;;;2.33;2.22;;;;;;;;;;6181124;23;20394;-75
2022/10/14 11:37:01;;;;;;;2.85;2.53;;;;;;;;;;6181867;23;20092;-77
2022/10/14 11:39:42;;;;;;;2.65;2.45;;;;;;;;;;6181999;23;20035;-75
2022/10/14 11:42:24;;;;;;;3.05;2.75;;;;;;;;;;6181878;23;20025;-75
2022/10/14 11:45:04;;;;;;;2.75;2.55;;;;;;;;;;6181271;23;20009;-76
2022/10/14 11:47:32;;;;;;;2.97;2.60;;;;;;;;;;6155489;23;20071;-76
2022/10/14 11:49:59;;;;;;;3.30;3.00;;;;;;;;;;6154710;23;20028;-75
2022/10/14 11:52:26;;;;;;;3.00;2.78;;;;;;;;;;6155086;23;20029;-76
2022/10/14 11:54:53;;;;;;;4.32;2.80;;;;;;;;;;6154797;23;20299;-76
2022/10/14 11:57:35;;;;;;;2.83;2.63;;;;;;;;;;6180934;23;20107;-76
2022/10/14 12:00:20;;;;;;;2.58;2.42;;;;;;;;;;6155300;23;20410;-75
2022/10/14 12:03:08;;;;;;;2.55;2.35;;;;;;;;;;6181597;23;20548;-75
2022/10/14 12:05:41;;;;;;;3.08;2.70;;;;;;;;;;6181787;23;20566;-76
2022/10/14 12:08:17;;;;;;;2.80;2.60;;;;;;;;;;6179118;23;20044;-76
2022/10/14 12:10:46;;;;;;;3.60;2.72;;;;;;;;;;6180881;23;20033;-77
2022/10/14 12:13:14;;;;;;;4.13;3.05;;;;;;;;;;6155474;23;20049;-76
2022/10/14 12:15:41;;;;;;;2.88;2.58;;;;;;;;;;6152532;23;20013;-74
2022/10/14 12:18:09;;;;;;;1.85;1.75;;;;;;;;;;6182085;23;20068;-74
2022/10/14 12:20:54;;;;;;;3.40;2.50;;;;;;;;;;6154571;23;20016;-75
2022/10/14 12:23:24;;;;;;;3.53;2.47;;;;;;;;;;6182046;23;20398;-76
2022/10/14 12:25:52;;;;;;;2.55;2.35;;;;;;;;;;6181683;23;20037;-75
2022/10/14 12:28:18;;;;;;;2.28;1.63;;;;;;;;;;6182064;23;20084;-74
2022/10/14 12:30:45;;;;;;;1.65;1.55;;;;;;;;;;6182172;23;20021;-74
2022/10/14 12:33:12;;;;;;;7.50;2.33;;;;;;;;;;6182358;23;20060;-75
2022/10/14 12:36:00;;;;;;;2.88;2.60;;;;;;;;;;6182190;23;20009;-74
2022/10/14 12:38:27;;;;;;;2.92;2.58;;;;;;;;;;6182991;23;20024;-75
2022/10/14 12:40:55;;;;;;;2.15;2.05;;;;;;;;;;6131271;23;20096;-75
2022/10/14 12:43:28;;;;;;;3.00;2.80;;;;;;;;;;6156689;23;20016;-75
2022/10/14 12:46:10;;;;;;;8.23;2.50;;;;;;;;;;6155943;23;20088;-75
2022/10/14 12:48:37;;;;;;;3.05;2.60;;;;;;;;;;6131576;23;20088;-74
2022/10/14 12:51:09;;;;;;;5.63;3.05;;;;;;;;;;6131721;23;20016;-75
2022/10/14 12:53:36;;;;;;;4.05;3.08;;;;;;;;;;6183208;23;20017;-75
2022/10/14 12:56:03;;;;;;;3.10;2.90;;;;;;;;;;6156124;23;20074;-74
2022/10/14 12:58:49;;;;;;;3.20;3.00;;;;;;;;;;6130920;23;20519;-74
2022/10/14 13:01:20;;;;;;;1.95;1.85;;;;;;;;;;6182266;23;20016;-75
2022/10/14 13:03:51;;;;;;;4.20;2.90;;;;;;;;;;6156658;23;20429;-75
2022/10/14 13:06:37;;;;;;;5.05;3.10;;;;;;;;;;6183085;23;20019;-75
2022/10/14 13:09:12;;;;;;;5.72;3.22;;;;;;;;;;6183469;23;20009;-75
2022/10/14 13:11:39;;;;;;;3.58;2.85;;;;;;;;;;6184130;23;20020;-75
2022/10/14 13:14:19;;;;;;;3.60;3.30;;;;;;;;;;6158573;23;20013;-74
2022/10/14 13:16:45;;;;;;;3.67;2.38;;;;;;;;;;6183361;23;20019;-74
2022/10/14 13:19:46;;;;;;;2.75;2.55;;;;;;;;;;6182826;23;20100;-74
2022/10/14 13:22:28;;;;;;;2.63;2.47;;;;;;;;;;6149102;23;20014;-75
2022/10/14 13:25:11;;;;;;;3.15;2.95;;;;;;;;;;6179137;23;20021;-74
2022/10/14 13:27:56;;;;;;;3.05;2.85;;;;;;;;;;6182315;23;20072;-74
2022/10/14 13:30:40;;;;;;;2.78;2.22;;;;;;;;;;6182711;23;20479;-75
2022/10/14 13:33:14;;;;;;;5.63;2.20;;;;;;;;;;6155776;23;20548;-75
2022/10/14 13:36:00;;;;;;;2.60;2.40;;;;;;;;;;6155370;23;20012;-77
2022/10/14 13:38:26;;;;;;;2.67;2.25;;;;;;;;;;6190811;23;20049;-74
2022/10/14 13:40:53;;;;;;;3.15;2.85;;;;;;;;;;6190306;23;20013;-74
2022/10/14 13:43:26;;;;;;;2.80;2.60;;;;;;;;;;6186240;23;20327;-75
2022/10/14 13:45:58;;;;;;;6.35;2.97;;;;;;;;;;6181249;23;20096;-75
2022/10/14 13:48:26;;;;;;;3.75;3.45;;;;;;;;;;6182639;23;20024;-74
2022/10/14 13:50:52;;;;;;;4.38;3.65;;;;;;;;;;6155722;23;20040;-76
2022/10/14 13:53:21;;;;;;;8.70;4.15;;;;;;;;;;6156335;23;20306;-76
2022/10/14 13:55:50;;;;;;;5.53;3.72;;;;;;;;;;6155538;23;20096;-74
2022/10/14 13:58:17;;;;;;;11.77;5.70;;;;;;;;;;6150295;23;20045;-74
2022/10/14 14:00:58;;;;;;;13.25;6.55;;;;;;;;;;6125342;23;20093;-74
2022/10/14 14:03:24;;;;;;;;;;;;;;;;;;6152458;23;20020;-74
2022/10/14 14:05:50;;;;;;;11.73;6.47;;;;;;;;;;6125435;23;20291;-74
2022/10/14 14:08:17;;;;;;;8.98;5.10;;;;;;;;;;6152206;23;20073;-75
2022/10/14 14:10:50;;;;;;;6.65;5.10;;;;;;;;;;6125371;23;20013;-74
2022/10/14 14:13:16;;;;;;;6.53;5.10;;;;;;;;;;6152299;23;20048;-74
2022/10/14 14:15:42;;;;;;;12.35;6.32;;;;;;;;;;6125183;23;20096;-74
2022/10/14 14:18:32;;;;;;;12.23;7.70;;;;;;;;;;6125973;23;20024;-73
2022/10/14 14:20:58;;;;;;;12.88;8.05;;;;;;;;;;6143827;23;20449;-74
2022/10/14 14:23:24;;;;;;;15.27;8.65;;;;;;;;;;6152916;23;20427;-75
2022/10/14 14:25:50;;;;;;;15.48;9.85;;;;;;;;;;6151938;23;20014;-74
2022/10/14 14:28:16;;;;;;;14.18;8.77;;;;;;;;;;6151019;23;20092;-74
2022/10/14 14:30:46;;;;;;;12.13;9.35;;;;;;;;;;6150284;23;20446;-76
2022/10/14 14:33:17;;;;;;;16.92;8.60;;;;;;;;;;6126150;23;20510;-75
2022/10/14 14:35:49;;;;;;;15.00;8.40;;;;;;;;;;6151655;23;20021;-75
2022/10/14 14:38:24;;;;;;;13.02;8.95;;;;;;;;;;6152277;23;20058;-74
2022/10/14 14:40:58;;;;;;;18.08;8.48;;;;;;;;;;6125917;23;20081;-74
2022/10/14 14:43:24;;;;;;;11.07;7.72;;;;;;;;;;6153142;23;20457;-75
2022/10/14 14:45:50;;;;;;;10.68;8.43;;;;;;;;;;6152142;23;20017;-75
2022/10/14 14:48:17;;;;;;;16.65;7.60;;;;;;;;;;6126239;23;20025;-75
2022/10/14 14:50:44;;;;;;;15.73;7.35;;;;;;;;;;6125494;23;20054;-75
2022/10/14 14:53:10;;;;;;;16.80;7.53;;;;;;;;;;6152588;23;20601;-74
2022/10/14 14:55:36;;;;;;;14.60;8.38;;;;;;;;;;6126941;23;20033;-75
2022/10/14 14:58:02;;;;;;;15.93;8.48;;;;;;;;;;6126239;23;20025;-74